sensor_id;sensor_type;location;lat;lon;timestamp;P1;durP1;ratioP1;P2;durP2;ratioP2
51438;SDS011;38816;51.142;-0.974;2022-09-21T00:00:24;3.67;;;2.55;;
51438;SDS011;38816;51.142;-0.974;2022-09-21T00:02:53;4.55;;;2.70;;
51438;SDS011;38816;51.142;-0.974;2022-09-21T00:05:20;3.30;;;2.42;;
51438;SDS011;38816;51.142;-0.974;2022-09-21T00:07:45;4.75;;;2.58;;
51438;SDS011;38816;51.142;-0.974;2022-09-21T00:10:11;3.50;;;2.63;;
51438;SDS011;38816;51.142;-0.974;2022-09-21T00:12:36;4.70;;;2.70;;
51438;SDS011;38816;51.142;-0.974;2022-09-21T00:15:08;3.92;;;2.80;;
51438;SDS011;38816;51.142;-0.974;2022-09-21T00:17:35;6.47;;;2.80;;
51438;SDS011;38816;51.142;-0.974;2022-09-21T00:20:02;3.33;;;2.53;;
51438;SDS011;38816;51.142;-0.974;2022-09-21T00:22:30;5.97;;;2.30;;
51438;SDS011;38816;51.142;-0.974;2022-09-21T00:24:59;5.25;;;2.47;;
51438;SDS011;38816;51.142;-0.974;2022-09-21T00:27:28;4.30;;;2.50;;
51438;SDS011;38816;51.142;-0.974;2022-09-21T00:29:56;3.10;;;2.38;;
51438;SDS011;38816;51.142;-0.974;2022-09-21T00:32:22;4.45;;;2.15;;
51438;SDS011;38816;51.142;-0.974;2022-09-21T00:34:51;4.68;;;2.90;;
51438;SDS011;38816;51.142;-0.974;2022-09-21T00:37:19;6.90;;;2.47;;
51438;SDS011;38816;51.142;-0.974;2022-09-21T00:39:45;5.55;;;2.85;;
51438;SDS011;38816;51.142;-0.974;2022-09-21T00:42:16;4.57;;;2.53;;
51438;SDS011;38816;51.142;-0.974;2022-09-21T00:44:44;4.55;;;2.75;;
51438;SDS011;38816;51.142;-0.974;2022-09-21T00:47:10;5.45;;;2.30;;
51438;SDS011;38816;51.142;-0.974;2022-09-21T00:49:38;4.57;;;2.45;;
51438;SDS011;38816;51.142;-0.974;2022-09-21T00:52:05;3.17;;;2.45;;
51438;SDS011;38816;51.142;-0.974;2022-09-21T00:54:34;5.68;;;2.60;;
51438;SDS011;38816;51.142;-0.974;2022-09-21T00:57:09;4.45;;;2.47;;
51438;SDS011;38816;51.142;-0.974;2022-09-21T00:59:35;4.65;;;2.38;;
51438;SDS011;38816;51.142;-0.974;2022-09-21T01:02:02;3.13;;;2.13;;
51438;SDS011;38816;51.142;-0.974;2022-09-21T01:04:28;2.78;;;1.98;;
51438;SDS011;38816;51.142;-0.974;2022-09-21T01:06:55;4.65;;;2.40;;
51438;SDS011;38816;51.142;-0.974;2022-09-21T01:09:25;4.05;;;2.47;;
51438;SDS011;38816;51.142;-0.974;2022-09-21T01:20:44;4.15;;;2.30;;
51438;SDS011;38816;51.142;-0.974;2022-09-21T01:32:02;3.53;;;2.10;;
51438;SDS011;38816;51.142;-0.974;2022-09-21T01:34:50;5.55;;;2.55;;
51438;SDS011;38816;51.142;-0.974;2022-09-21T01:37:23;4.40;;;2.40;;
51438;SDS011;38816;51.142;-0.974;2022-09-21T01:39:55;4.43;;;2.60;;
51438;SDS011;38816;51.142;-0.974;2022-09-21T01:42:25;5.40;;;2.60;;
51438;SDS011;38816;51.142;-0.974;2022-09-21T01:44:53;4.90;;;2.88;;
51438;SDS011;38816;51.142;-0.974;2022-09-21T01:47:21;4.20;;;2.60;;
51438;SDS011;38816;51.142;-0.974;2022-09-21T01:49:50;5.03;;;2.30;;
51438;SDS011;38816;51.142;-0.974;2022-09-21T01:52:24;4.25;;;2.35;;
51438;SDS011;38816;51.142;-0.974;2022-09-21T01:55:23;4.07;;;2.58;;
51438;SDS011;38816;51.142;-0.974;2022-09-21T02:04:18;6.20;;;2.40;;
51438;SDS011;38816;51.142;-0.974;2022-09-21T02:06:44;7.85;;;2.38;;
51438;SDS011;38816;51.142;-0.974;2022-09-21T02:09:11;4.70;;;2.63;;
51438;SDS011;38816;51.142;-0.974;2022-09-21T02:11:37;4.78;;;2.63;;
51438;SDS011;38816;51.142;-0.974;2022-09-21T02:14:06;4.38;;;2.60;;
51438;SDS011;38816;51.142;-0.974;2022-09-21T02:16:39;3.25;;;2.47;;
51438;SDS011;38816;51.142;-0.974;2022-09-21T02:24:42;3.67;;;2.55;;
51438;SDS011;38816;51.142;-0.974;2022-09-21T02:29:49;4.00;;;2.72;;
51438;SDS011;38816;51.142;-0.974;2022-09-21T02:32:30;4.07;;;2.67;;
51438;SDS011;38816;51.142;-0.974;2022-09-21T02:35:36;7.07;;;2.65;;
51438;SDS011;38816;51.142;-0.974;2022-09-21T02:40:55;7.68;;;2.53;;
51438;SDS011;38816;51.142;-0.974;2022-09-21T02:43:32;4.30;;;2.53;;
51438;SDS011;38816;51.142;-0.974;2022-09-21T02:46:08;4.15;;;2.83;;
51438;SDS011;38816;51.142;-0.974;2022-09-21T02:48:46;6.35;;;2.60;;
51438;SDS011;38816;51.142;-0.974;2022-09-21T02:51:16;5.25;;;2.90;;
51438;SDS011;38816;51.142;-0.974;2022-09-21T02:53:48;4.57;;;2.35;;
51438;SDS011;38816;51.142;-0.974;2022-09-21T02:56:16;3.22;;;2.25;;
51438;SDS011;38816;51.142;-0.974;2022-09-21T02:58:44;2.90;;;2.15;;
51438;SDS011;38816;51.142;-0.974;2022-09-21T03:01:14;4.45;;;2.58;;
51438;SDS011;38816;51.142;-0.974;2022-09-21T03:03:41;4.25;;;2.78;;
51438;SDS011;38816;51.142;-0.974;2022-09-21T03:06:06;4.70;;;2.58;;
51438;SDS011;38816;51.142;-0.974;2022-09-21T03:08:32;5.38;;;2.65;;
51438;SDS011;38816;51.142;-0.974;2022-09-21T03:10:57;3.40;;;2.30;;
51438;SDS011;38816;51.142;-0.974;2022-09-21T03:13:23;5.55;;;2.80;;
51438;SDS011;38816;51.142;-0.974;2022-09-21T03:15:49;4.97;;;2.50;;
51438;SDS011;38816;51.142;-0.974;2022-09-21T03:18:22;5.35;;;3.30;;
51438;SDS011;38816;51.142;-0.974;2022-09-21T03:20:47;4.15;;;2.60;;
51438;SDS011;38816;51.142;-0.974;2022-09-21T03:23:13;7.95;;;2.65;;
51438;SDS011;38816;51.142;-0.974;2022-09-21T03:25:38;3.88;;;2.58;;
51438;SDS011;38816;51.142;-0.974;2022-09-21T03:28:04;5.32;;;2.53;;
51438;SDS011;38816;51.142;-0.974;2022-09-21T03:30:29;4.90;;;2.70;;
51438;SDS011;38816;51.142;-0.974;2022-09-21T03:32:56;5.03;;;2.45;;
51438;SDS011;38816;51.142;-0.974;2022-09-21T03:35:22;5.82;;;2.30;;
51438;SDS011;38816;51.142;-0.974;2022-09-21T03:37:48;5.63;;;2.75;;
51438;SDS011;38816;51.142;-0.974;2022-09-21T03:40:14;3.10;;;2.40;;
51438;SDS011;38816;51.142;-0.974;2022-09-21T03:42:41;3.05;;;2.20;;
51438;SDS011;38816;51.142;-0.974;2022-09-21T03:45:07;3.85;;;2.25;;
51438;SDS011;38816;51.142;-0.974;2022-09-21T03:47:35;5.45;;;2.42;;
51438;SDS011;38816;51.142;-0.974;2022-09-21T03:50:01;4.10;;;2.60;;
51438;SDS011;38816;51.142;-0.974;2022-09-21T03:52:26;5.78;;;2.47;;
51438;SDS011;38816;51.142;-0.974;2022-09-21T03:54:52;4.95;;;2.40;;
51438;SDS011;38816;51.142;-0.974;2022-09-21T03:57:19;3.60;;;2.50;;
51438;SDS011;38816;51.142;-0.974;2022-09-21T03:59:44;3.95;;;2.40;;
51438;SDS011;38816;51.142;-0.974;2022-09-21T04:02:09;7.75;;;3.08;;
51438;SDS011;38816;51.142;-0.974;2022-09-21T04:04:35;4.55;;;2.47;;
51438;SDS011;38816;51.142;-0.974;2022-09-21T04:07:01;5.00;;;2.60;;
51438;SDS011;38816;51.142;-0.974;2022-09-21T04:09:26;4.28;;;2.72;;
51438;SDS011;38816;51.142;-0.974;2022-09-21T04:11:52;5.47;;;2.58;;
51438;SDS011;38816;51.142;-0.974;2022-09-21T04:14:17;4.68;;;2.80;;
51438;SDS011;38816;51.142;-0.974;2022-09-21T04:16:43;4.63;;;2.80;;
51438;SDS011;38816;51.142;-0.974;2022-09-21T04:19:09;5.13;;;2.80;;
51438;SDS011;38816;51.142;-0.974;2022-09-21T04:21:34;4.38;;;2.60;;
51438;SDS011;38816;51.142;-0.974;2022-09-21T04:24:00;4.30;;;2.90;;
51438;SDS011;38816;51.142;-0.974;2022-09-21T04:26:30;4.93;;;2.92;;
51438;SDS011;38816;51.142;-0.974;2022-09-21T04:28:57;4.55;;;2.78;;
51438;SDS011;38816;51.142;-0.974;2022-09-21T04:31:24;6.53;;;2.90;;
51438;SDS011;38816;51.142;-0.974;2022-09-21T04:33:51;7.13;;;2.80;;
51438;SDS011;38816;51.142;-0.974;2022-09-21T04:36:19;7.97;;;4.05;;
51438;SDS011;38816;51.142;-0.974;2022-09-21T04:38:46;6.93;;;3.30;;
51438;SDS011;38816;51.142;-0.974;2022-09-21T04:41:12;4.90;;;2.60;;
51438;SDS011;38816;51.142;-0.974;2022-09-21T04:43:39;5.85;;;2.78;;
51438;SDS011;38816;51.142;-0.974;2022-09-21T04:46:07;6.13;;;2.80;;
51438;SDS011;38816;51.142;-0.974;2022-09-21T04:48:33;5.80;;;2.67;;
51438;SDS011;38816;51.142;-0.974;2022-09-21T04:50:59;6.32;;;2.80;;
51438;SDS011;38816;51.142;-0.974;2022-09-21T04:53:24;4.68;;;2.92;;
51438;SDS011;38816;51.142;-0.974;2022-09-21T04:55:50;5.50;;;2.97;;
51438;SDS011;38816;51.142;-0.974;2022-09-21T04:58:15;5.75;;;3.08;;
51438;SDS011;38816;51.142;-0.974;2022-09-21T05:00:40;3.97;;;2.80;;
51438;SDS011;38816;51.142;-0.974;2022-09-21T05:03:06;5.03;;;3.20;;
51438;SDS011;38816;51.142;-0.974;2022-09-21T05:05:31;4.65;;;3.03;;
51438;SDS011;38816;51.142;-0.974;2022-09-21T05:07:57;10.38;;;3.15;;
51438;SDS011;38816;51.142;-0.974;2022-09-21T05:10:22;6.20;;;3.30;;
51438;SDS011;38816;51.142;-0.974;2022-09-21T05:12:48;5.10;;;3.38;;
51438;SDS011;38816;51.142;-0.974;2022-09-21T05:15:14;7.32;;;4.00;;
51438;SDS011;38816;51.142;-0.974;2022-09-21T05:17:39;6.18;;;2.95;;
51438;SDS011;38816;51.142;-0.974;2022-09-21T05:20:05;4.93;;;3.22;;
51438;SDS011;38816;51.142;-0.974;2022-09-21T05:22:31;7.65;;;3.33;;
51438;SDS011;38816;51.142;-0.974;2022-09-21T05:24:56;5.05;;;3.42;;
51438;SDS011;38816;51.142;-0.974;2022-09-21T05:27:22;8.25;;;3.55;;
51438;SDS011;38816;51.142;-0.974;2022-09-21T05:29:47;6.00;;;3.63;;
51438;SDS011;38816;51.142;-0.974;2022-09-21T05:32:21;4.90;;;3.50;;
51438;SDS011;38816;51.142;-0.974;2022-09-21T05:37:38;8.88;;;3.80;;
51438;SDS011;38816;51.142;-0.974;2022-09-21T05:40:06;8.88;;;3.63;;
51438;SDS011;38816;51.142;-0.974;2022-09-21T05:42:33;6.30;;;4.13;;
51438;SDS011;38816;51.142;-0.974;2022-09-21T05:44:59;9.65;;;3.90;;
51438;SDS011;38816;51.142;-0.974;2022-09-21T05:47:34;5.97;;;4.00;;
51438;SDS011;38816;51.142;-0.974;2022-09-21T05:52:50;10.93;;;4.28;;
51438;SDS011;38816;51.142;-0.974;2022-09-21T06:00:35;9.45;;;4.10;;
51438;SDS011;38816;51.142;-0.974;2022-09-21T06:03:24;8.38;;;4.28;;
51438;SDS011;38816;51.142;-0.974;2022-09-21T06:05:53;7.18;;;3.60;;
51438;SDS011;38816;51.142;-0.974;2022-09-21T06:08:18;6.63;;;3.92;;
51438;SDS011;38816;51.142;-0.974;2022-09-21T06:10:44;8.18;;;4.10;;
51438;SDS011;38816;51.142;-0.974;2022-09-21T06:13:09;7.50;;;4.35;;
51438;SDS011;38816;51.142;-0.974;2022-09-21T06:15:35;10.00;;;4.10;;
51438;SDS011;38816;51.142;-0.974;2022-09-21T06:18:04;6.22;;;4.03;;
51438;SDS011;38816;51.142;-0.974;2022-09-21T06:20:30;6.18;;;3.55;;
51438;SDS011;38816;51.142;-0.974;2022-09-21T06:23:03;7.15;;;3.63;;
51438;SDS011;38816;51.142;-0.974;2022-09-21T06:25:29;6.35;;;3.65;;
51438;SDS011;38816;51.142;-0.974;2022-09-21T06:27:55;4.82;;;3.53;;
51438;SDS011;38816;51.142;-0.974;2022-09-21T06:30:36;8.70;;;3.70;;
51438;SDS011;38816;51.142;-0.974;2022-09-21T06:33:03;6.18;;;3.80;;
51438;SDS011;38816;51.142;-0.974;2022-09-21T06:35:31;7.20;;;3.75;;
51438;SDS011;38816;51.142;-0.974;2022-09-21T06:37:58;7.93;;;3.72;;
51438;SDS011;38816;51.142;-0.974;2022-09-21T06:40:28;15.15;;;4.57;;
51438;SDS011;38816;51.142;-0.974;2022-09-21T06:42:55;20.63;;;7.53;;
51438;SDS011;38816;51.142;-0.974;2022-09-21T06:45:22;18.27;;;7.65;;
51438;SDS011;38816;51.142;-0.974;2022-09-21T06:47:47;22.80;;;8.27;;
51438;SDS011;38816;51.142;-0.974;2022-09-21T06:50:12;19.98;;;8.90;;
51438;SDS011;38816;51.142;-0.974;2022-09-21T06:52:38;12.90;;;5.88;;
51438;SDS011;38816;51.142;-0.974;2022-09-21T06:55:04;12.75;;;5.75;;
51438;SDS011;38816;51.142;-0.974;2022-09-21T06:57:30;10.70;;;5.57;;
51438;SDS011;38816;51.142;-0.974;2022-09-21T06:59:56;12.35;;;5.13;;
51438;SDS011;38816;51.142;-0.974;2022-09-21T07:02:21;12.38;;;5.65;;
51438;SDS011;38816;51.142;-0.974;2022-09-21T07:04:46;7.50;;;4.20;;
51438;SDS011;38816;51.142;-0.974;2022-09-21T07:07:12;9.60;;;4.60;;
51438;SDS011;38816;51.142;-0.974;2022-09-21T07:09:37;11.57;;;4.63;;
51438;SDS011;38816;51.142;-0.974;2022-09-21T07:12:03;10.50;;;4.80;;
51438;SDS011;38816;51.142;-0.974;2022-09-21T07:14:28;12.18;;;4.28;;
51438;SDS011;38816;51.142;-0.974;2022-09-21T07:16:56;11.23;;;4.97;;
51438;SDS011;38816;51.142;-0.974;2022-09-21T07:19:22;10.55;;;4.57;;
51438;SDS011;38816;51.142;-0.974;2022-09-21T07:21:47;10.88;;;5.05;;
51438;SDS011;38816;51.142;-0.974;2022-09-21T07:24:13;13.27;;;4.47;;
51438;SDS011;38816;51.142;-0.974;2022-09-21T07:26:39;8.52;;;5.05;;
51438;SDS011;38816;51.142;-0.974;2022-09-21T07:29:04;9.32;;;4.78;;
51438;SDS011;38816;51.142;-0.974;2022-09-21T07:31:30;9.55;;;5.32;;
51438;SDS011;38816;51.142;-0.974;2022-09-21T07:33:56;12.25;;;6.03;;
51438;SDS011;38816;51.142;-0.974;2022-09-21T07:36:23;13.15;;;6.13;;
51438;SDS011;38816;51.142;-0.974;2022-09-21T07:38:48;12.15;;;5.60;;
51438;SDS011;38816;51.142;-0.974;2022-09-21T07:41:14;11.10;;;6.43;;
51438;SDS011;38816;51.142;-0.974;2022-09-21T07:43:39;13.60;;;6.05;;
51438;SDS011;38816;51.142;-0.974;2022-09-21T07:46:09;9.80;;;5.63;;
51438;SDS011;38816;51.142;-0.974;2022-09-21T07:48:36;12.88;;;5.18;;
51438;SDS011;38816;51.142;-0.974;2022-09-21T07:51:02;12.65;;;5.78;;
51438;SDS011;38816;51.142;-0.974;2022-09-21T07:53:30;13.70;;;5.75;;
51438;SDS011;38816;51.142;-0.974;2022-09-21T07:56:00;9.50;;;5.13;;
51438;SDS011;38816;51.142;-0.974;2022-09-21T07:58:27;13.13;;;5.40;;
51438;SDS011;38816;51.142;-0.974;2022-09-21T08:01:10;10.38;;;5.28;;
51438;SDS011;38816;51.142;-0.974;2022-09-21T08:03:37;13.15;;;4.72;;
51438;SDS011;38816;51.142;-0.974;2022-09-21T08:06:03;10.60;;;4.32;;
51438;SDS011;38816;51.142;-0.974;2022-09-21T08:08:28;8.50;;;4.78;;
51438;SDS011;38816;51.142;-0.974;2022-09-21T08:10:54;9.95;;;4.65;;
51438;SDS011;38816;51.142;-0.974;2022-09-21T08:13:21;10.40;;;4.53;;
51438;SDS011;38816;51.142;-0.974;2022-09-21T08:15:46;13.10;;;4.30;;
51438;SDS011;38816;51.142;-0.974;2022-09-21T08:18:21;9.43;;;3.83;;
51438;SDS011;38816;51.142;-0.974;2022-09-21T08:20:51;5.93;;;3.85;;
51438;SDS011;38816;51.142;-0.974;2022-09-21T08:23:21;7.65;;;3.80;;
51438;SDS011;38816;51.142;-0.974;2022-09-21T08:25:47;9.13;;;3.65;;
51438;SDS011;38816;51.142;-0.974;2022-09-21T08:28:12;6.05;;;3.22;;
51438;SDS011;38816;51.142;-0.974;2022-09-21T08:30:38;5.38;;;3.15;;
51438;SDS011;38816;51.142;-0.974;2022-09-21T08:33:04;6.07;;;2.90;;
51438;SDS011;38816;51.142;-0.974;2022-09-21T08:35:31;7.07;;;3.33;;
51438;SDS011;38816;51.142;-0.974;2022-09-21T08:37:57;3.95;;;2.50;;
51438;SDS011;38816;51.142;-0.974;2022-09-21T08:40:23;9.98;;;3.63;;
51438;SDS011;38816;51.142;-0.974;2022-09-21T08:42:58;4.68;;;2.85;;
51438;SDS011;38816;51.142;-0.974;2022-09-21T08:45:43;6.63;;;2.75;;
51438;SDS011;38816;51.142;-0.974;2022-09-21T08:48:12;7.45;;;3.30;;
51438;SDS011;38816;51.142;-0.974;2022-09-21T08:50:47;4.63;;;2.50;;
51438;SDS011;38816;51.142;-0.974;2022-09-21T08:55:45;7.75;;;2.10;;
51438;SDS011;38816;51.142;-0.974;2022-09-21T08:58:19;4.28;;;1.92;;
51438;SDS011;38816;51.142;-0.974;2022-09-21T09:00:47;15.50;;;4.40;;
51438;SDS011;38816;51.142;-0.974;2022-09-21T09:03:28;2.95;;;1.80;;
51438;SDS011;38816;51.142;-0.974;2022-09-21T09:06:05;3.97;;;1.50;;
51438;SDS011;38816;51.142;-0.974;2022-09-21T09:11:36;5.00;;;1.55;;
51438;SDS011;38816;51.142;-0.974;2022-09-21T09:21:52;4.50;;;1.40;;
51438;SDS011;38816;51.142;-0.974;2022-09-21T09:24:35;2.33;;;1.35;;
51438;SDS011;38816;51.142;-0.974;2022-09-21T09:27:20;2.15;;;1.42;;
51438;SDS011;38816;51.142;-0.974;2022-09-21T09:32:15;5.80;;;2.25;;
51438;SDS011;38816;51.142;-0.974;2022-09-21T09:34:47;8.57;;;2.47;;
51438;SDS011;38816;51.142;-0.974;2022-09-21T09:37:19;3.35;;;1.88;;
51438;SDS011;38816;51.142;-0.974;2022-09-21T09:39:53;3.40;;;1.85;;
51438;SDS011;38816;51.142;-0.974;2022-09-21T09:50:09;4.80;;;2.00;;
51438;SDS011;38816;51.142;-0.974;2022-09-21T09:52:37;2.55;;;1.70;;
51438;SDS011;38816;51.142;-0.974;2022-09-21T09:55:23;4.32;;;1.75;;
51438;SDS011;38816;51.142;-0.974;2022-09-21T09:57:54;3.53;;;1.95;;
51438;SDS011;38816;51.142;-0.974;2022-09-21T10:00:20;2.50;;;1.60;;
51438;SDS011;38816;51.142;-0.974;2022-09-21T10:07:58;2.80;;;1.98;;
51438;SDS011;38816;51.142;-0.974;2022-09-21T10:12:53;2.47;;;1.70;;
51438;SDS011;38816;51.142;-0.974;2022-09-21T10:15:22;3.38;;;2.33;;
51438;SDS011;38816;51.142;-0.974;2022-09-21T10:17:55;3.35;;;1.92;;
51438;SDS011;38816;51.142;-0.974;2022-09-21T10:20:35;2.28;;;1.60;;
51438;SDS011;38816;51.142;-0.974;2022-09-21T10:23:00;2.17;;;1.52;;
51438;SDS011;38816;51.142;-0.974;2022-09-21T10:25:27;1.98;;;1.42;;
51438;SDS011;38816;51.142;-0.974;2022-09-21T10:27:54;2.90;;;1.52;;
51438;SDS011;38816;51.142;-0.974;2022-09-21T10:30:31;2.10;;;1.50;;
51438;SDS011;38816;51.142;-0.974;2022-09-21T10:32:58;1.67;;;1.58;;
51438;SDS011;38816;51.142;-0.974;2022-09-21T10:35:25;1.98;;;1.40;;
51438;SDS011;38816;51.142;-0.974;2022-09-21T10:38:10;2.20;;;1.50;;
51438;SDS011;38816;51.142;-0.974;2022-09-21T10:40:41;1.60;;;1.25;;
51438;SDS011;38816;51.142;-0.974;2022-09-21T10:43:20;1.98;;;1.35;;
51438;SDS011;38816;51.142;-0.974;2022-09-21T10:45:54;1.52;;;1.10;;
51438;SDS011;38816;51.142;-0.974;2022-09-21T10:48:21;4.55;;;1.77;;
51438;SDS011;38816;51.142;-0.974;2022-09-21T10:50:48;2.53;;;1.63;;
51438;SDS011;38816;51.142;-0.974;2022-09-21T10:53:21;1.70;;;1.40;;
51438;SDS011;38816;51.142;-0.974;2022-09-21T10:56:04;2.05;;;1.38;;
51438;SDS011;38816;51.142;-0.974;2022-09-21T11:01:46;2.72;;;1.10;;
51438;SDS011;38816;51.142;-0.974;2022-09-21T11:09:45;2.10;;;1.35;;
51438;SDS011;38816;51.142;-0.974;2022-09-21T11:20:20;2.72;;;1.73;;
51438;SDS011;38816;51.142;-0.974;2022-09-21T11:23:17;3.00;;;1.88;;
51438;SDS011;38816;51.142;-0.974;2022-09-21T11:25:45;3.63;;;1.80;;
51438;SDS011;38816;51.142;-0.974;2022-09-21T12:02:17;2.40;;;1.50;;
51438;SDS011;38816;51.142;-0.974;2022-09-21T12:04:48;2.60;;;1.70;;
51438;SDS011;38816;51.142;-0.974;2022-09-21T12:13:15;3.83;;;1.80;;
51438;SDS011;38816;51.142;-0.974;2022-09-21T12:15:57;4.85;;;1.92;;
51438;SDS011;38816;51.142;-0.974;2022-09-21T12:21:14;1.40;;;1.30;;
51438;SDS011;38816;51.142;-0.974;2022-09-21T12:23:51;2.70;;;1.42;;
51438;SDS011;38816;51.142;-0.974;2022-09-21T12:26:20;2.75;;;1.30;;
51438;SDS011;38816;51.142;-0.974;2022-09-21T12:29:01;1.75;;;1.40;;
51438;SDS011;38816;51.142;-0.974;2022-09-21T12:31:37;3.03;;;1.40;;
51438;SDS011;38816;51.142;-0.974;2022-09-21T12:34:14;2.63;;;1.20;;
51438;SDS011;38816;51.142;-0.974;2022-09-21T12:36:57;2.03;;;1.30;;
51438;SDS011;38816;51.142;-0.974;2022-09-21T12:39:31;6.97;;;1.73;;
51438;SDS011;38816;51.142;-0.974;2022-09-21T12:42:09;1.95;;;1.40;;
51438;SDS011;38816;51.142;-0.974;2022-09-21T12:44:47;3.13;;;1.63;;
51438;SDS011;38816;51.142;-0.974;2022-09-21T12:47:19;1.75;;;1.40;;
51438;SDS011;38816;51.142;-0.974;2022-09-21T12:50:04;1.40;;;1.30;;
51438;SDS011;38816;51.142;-0.974;2022-09-21T12:52:39;2.08;;;1.35;;
51438;SDS011;38816;51.142;-0.974;2022-09-21T13:00:41;2.38;;;1.70;;
51438;SDS011;38816;51.142;-0.974;2022-09-21T13:03:14;1.85;;;1.40;;
51438;SDS011;38816;51.142;-0.974;2022-09-21T13:08:40;1.83;;;1.25;;
51438;SDS011;38816;51.142;-0.974;2022-09-21T13:11:10;2.45;;;1.48;;
51438;SDS011;38816;51.142;-0.974;2022-09-21T13:16:06;2.60;;;1.45;;
51438;SDS011;38816;51.142;-0.974;2022-09-21T13:19:19;2.13;;;1.50;;
51438;SDS011;38816;51.142;-0.974;2022-09-21T13:21:51;1.98;;;1.45;;
51438;SDS011;38816;51.142;-0.974;2022-09-21T13:24:59;1.50;;;1.27;;
51438;SDS011;38816;51.142;-0.974;2022-09-21T13:30:47;2.45;;;1.10;;
51438;SDS011;38816;51.142;-0.974;2022-09-21T13:33:36;1.35;;;1.25;;
51438;SDS011;38816;51.142;-0.974;2022-09-21T13:37:11;1.70;;;1.15;;
51438;SDS011;38816;51.142;-0.974;2022-09-21T13:41:34;1.85;;;1.38;;
51438;SDS011;38816;51.142;-0.974;2022-09-21T13:44:11;1.35;;;1.15;;
51438;SDS011;38816;51.142;-0.974;2022-09-21T13:46:44;1.42;;;1.10;;
51438;SDS011;38816;51.142;-0.974;2022-09-21T13:49:17;3.55;;;1.50;;
51438;SDS011;38816;51.142;-0.974;2022-09-21T13:54:34;2.05;;;1.40;;
51438;SDS011;38816;51.142;-0.974;2022-09-21T13:57:03;2.05;;;1.20;;
51438;SDS011;38816;51.142;-0.974;2022-09-21T14:08:00;3.05;;;1.38;;
51438;SDS011;38816;51.142;-0.974;2022-09-21T14:10:30;1.63;;;1.35;;
51438;SDS011;38816;51.142;-0.974;2022-09-21T14:13:00;1.95;;;1.27;;
51438;SDS011;38816;51.142;-0.974;2022-09-21T14:15:31;2.88;;;1.55;;
51438;SDS011;38816;51.142;-0.974;2022-09-21T14:23:34;3.75;;;1.90;;
51438;SDS011;38816;51.142;-0.974;2022-09-21T14:26:01;1.95;;;1.40;;
51438;SDS011;38816;51.142;-0.974;2022-09-21T14:28:45;1.95;;;1.70;;
51438;SDS011;38816;51.142;-0.974;2022-09-21T14:31:30;2.00;;;1.60;;
51438;SDS011;38816;51.142;-0.974;2022-09-21T14:33:59;2.78;;;1.60;;
51438;SDS011;38816;51.142;-0.974;2022-09-21T14:36:38;2.65;;;1.95;;
51438;SDS011;38816;51.142;-0.974;2022-09-21T14:39:50;4.22;;;1.90;;
51438;SDS011;38816;51.142;-0.974;2022-09-21T14:42:06;2.30;;;1.70;;
51438;SDS011;38816;51.142;-0.974;2022-09-21T14:44:36;3.92;;;1.55;;
51438;SDS011;38816;51.142;-0.974;2022-09-21T15:06:50;2.42;;;1.90;;
51438;SDS011;38816;51.142;-0.974;2022-09-21T15:18:19;6.00;;;1.98;;
51438;SDS011;38816;51.142;-0.974;2022-09-21T15:20:58;2.65;;;1.80;;
51438;SDS011;38816;51.142;-0.974;2022-09-21T15:23:31;3.58;;;1.83;;
51438;SDS011;38816;51.142;-0.974;2022-09-21T15:26:11;2.60;;;1.80;;
51438;SDS011;38816;51.142;-0.974;2022-09-21T15:28:43;5.30;;;1.90;;
51438;SDS011;38816;51.142;-0.974;2022-09-21T15:31:15;4.18;;;1.90;;
51438;SDS011;38816;51.142;-0.974;2022-09-21T15:33:42;4.38;;;1.80;;
51438;SDS011;38816;51.142;-0.974;2022-09-21T15:36:20;2.85;;;1.90;;
51438;SDS011;38816;51.142;-0.974;2022-09-21T15:38:48;3.88;;;2.08;;
51438;SDS011;38816;51.142;-0.974;2022-09-21T15:44:21;3.15;;;2.00;;
51438;SDS011;38816;51.142;-0.974;2022-09-21T15:46:53;3.00;;;1.75;;
51438;SDS011;38816;51.142;-0.974;2022-09-21T15:49:24;7.65;;;1.88;;
51438;SDS011;38816;51.142;-0.974;2022-09-21T15:52:15;2.22;;;1.75;;
51438;SDS011;38816;51.142;-0.974;2022-09-21T15:54:43;11.40;;;2.03;;
51438;SDS011;38816;51.142;-0.974;2022-09-21T15:57:35;3.13;;;1.98;;
51438;SDS011;38816;51.142;-0.974;2022-09-21T16:00:06;11.18;;;2.10;;
51438;SDS011;38816;51.142;-0.974;2022-09-21T16:02:48;4.72;;;2.38;;
51438;SDS011;38816;51.142;-0.974;2022-09-21T16:05:15;3.53;;;1.77;;
51438;SDS011;38816;51.142;-0.974;2022-09-21T16:07:43;2.88;;;1.63;;
51438;SDS011;38816;51.142;-0.974;2022-09-21T16:10:52;3.55;;;2.17;;
51438;SDS011;38816;51.142;-0.974;2022-09-21T16:13:03;6.20;;;2.03;;
51438;SDS011;38816;51.142;-0.974;2022-09-21T16:16:07;2.58;;;1.95;;
51438;SDS011;38816;51.142;-0.974;2022-09-21T16:18:55;2.72;;;1.90;;
51438;SDS011;38816;51.142;-0.974;2022-09-21T16:21:30;3.47;;;1.80;;
51438;SDS011;38816;51.142;-0.974;2022-09-21T16:24:06;3.60;;;1.90;;
51438;SDS011;38816;51.142;-0.974;2022-09-21T16:26:35;2.65;;;1.75;;
51438;SDS011;38816;51.142;-0.974;2022-09-21T16:29:16;2.50;;;1.80;;
51438;SDS011;38816;51.142;-0.974;2022-09-21T16:31:48;3.45;;;2.05;;
51438;SDS011;38816;51.142;-0.974;2022-09-21T16:36:48;3.40;;;1.60;;
51438;SDS011;38816;51.142;-0.974;2022-09-21T16:39:15;4.03;;;1.50;;
51438;SDS011;38816;51.142;-0.974;2022-09-21T16:44:17;7.18;;;1.80;;
51438;SDS011;38816;51.142;-0.974;2022-09-21T16:47:09;1.65;;;1.40;;
51438;SDS011;38816;51.142;-0.974;2022-09-21T16:49:35;2.92;;;1.65;;
51438;SDS011;38816;51.142;-0.974;2022-09-21T16:52:01;3.25;;;1.50;;
51438;SDS011;38816;51.142;-0.974;2022-09-21T16:54:27;4.32;;;1.60;;
51438;SDS011;38816;51.142;-0.974;2022-09-21T16:56:54;1.40;;;1.30;;
51438;SDS011;38816;51.142;-0.974;2022-09-21T16:59:21;8.73;;;1.60;;
51438;SDS011;38816;51.142;-0.974;2022-09-21T17:01:51;1.98;;;1.40;;
51438;SDS011;38816;51.142;-0.974;2022-09-21T17:04:19;2.17;;;1.60;;
51438;SDS011;38816;51.142;-0.974;2022-09-21T17:06:47;3.33;;;1.20;;
51438;SDS011;38816;51.142;-0.974;2022-09-21T17:09:15;2.47;;;1.33;;
51438;SDS011;38816;51.142;-0.974;2022-09-21T17:11:43;6.78;;;1.42;;
51438;SDS011;38816;51.142;-0.974;2022-09-21T17:14:10;1.73;;;1.40;;
51438;SDS011;38816;51.142;-0.974;2022-09-21T17:16:40;3.38;;;1.38;;
51438;SDS011;38816;51.142;-0.974;2022-09-21T17:19:07;3.13;;;1.50;;
51438;SDS011;38816;51.142;-0.974;2022-09-21T17:21:33;2.05;;;1.17;;
51438;SDS011;38816;51.142;-0.974;2022-09-21T17:23:59;2.63;;;1.35;;
51438;SDS011;38816;51.142;-0.974;2022-09-21T17:26:24;3.65;;;1.27;;
51438;SDS011;38816;51.142;-0.974;2022-09-21T17:28:50;2.10;;;1.40;;
51438;SDS011;38816;51.142;-0.974;2022-09-21T17:31:17;2.03;;;1.52;;
51438;SDS011;38816;51.142;-0.974;2022-09-21T17:33:47;1.55;;;1.35;;
51438;SDS011;38816;51.142;-0.974;2022-09-21T17:36:14;2.53;;;1.20;;
51438;SDS011;38816;51.142;-0.974;2022-09-21T17:38:40;5.80;;;1.10;;
51438;SDS011;38816;51.142;-0.974;2022-09-21T17:44:04;5.32;;;1.20;;
51438;SDS011;38816;51.142;-0.974;2022-09-21T17:49:09;1.30;;;1.02;;
51438;SDS011;38816;51.142;-0.974;2022-09-21T17:51:35;1.50;;;1.17;;
51438;SDS011;38816;51.142;-0.974;2022-09-21T17:54:20;1.73;;;0.90;;
51438;SDS011;38816;51.142;-0.974;2022-09-21T17:56:46;2.17;;;1.20;;
51438;SDS011;38816;51.142;-0.974;2022-09-21T17:59:31;1.45;;;0.95;;
51438;SDS011;38816;51.142;-0.974;2022-09-21T18:01:59;2.33;;;0.98;;
51438;SDS011;38816;51.142;-0.974;2022-09-21T18:04:29;2.40;;;1.02;;
51438;SDS011;38816;51.142;-0.974;2022-09-21T18:06:57;1.95;;;1.13;;
51438;SDS011;38816;51.142;-0.974;2022-09-21T18:09:23;2.38;;;1.45;;
51438;SDS011;38816;51.142;-0.974;2022-09-21T18:17:31;1.65;;;1.13;;
51438;SDS011;38816;51.142;-0.974;2022-09-21T18:25:59;3.70;;;1.00;;
51438;SDS011;38816;51.142;-0.974;2022-09-21T18:34:05;3.97;;;1.85;;
51438;SDS011;38816;51.142;-0.974;2022-09-21T18:36:37;5.18;;;2.30;;
51438;SDS011;38816;51.142;-0.974;2022-09-21T18:39:24;5.30;;;2.40;;
51438;SDS011;38816;51.142;-0.974;2022-09-21T18:44:48;8.60;;;2.95;;